Time;durP1;ratioP1;P1;durP2;ratioP2;P2;SDS_P1;SDS_P2;PMS_P1;PMS_P2;Temp;Humidity;BMP_temperature;BMP_pressure;BME280_temperature;BME280_humidity;BME280_pressure;Samples;Min_cycle;Max_cycle;Signal;HPM_P1;HPM_P2
2023/10/03 00:02:03;;;;;;;14.85;9.38;;;;;;;15.55;100.00;99868.06;5034231;28;20037;-87
2023/10/03 00:04:28;;;;;;;17.60;9.80;;;;;;;15.69;100.00;99886.44;5052786;28;20123;-87
2023/10/03 00:06:54;;;;;;;16.13;10.70;;;;;;;15.55;100.00;99869.84;5053093;28;20064;-87
2023/10/03 00:09:19;;;;;;;14.90;9.88;;;;;;;15.54;100.00;99876.88;5034463;28;20136;-87
2023/10/03 00:11:44;;;;;;;18.60;11.52;;;;;;;15.53;100.00;99869.09;5052884;28;20025;-87
2023/10/03 00:14:11;;;;;;;16.58;11.15;;;;;;;15.47;100.00;99867.72;5052624;28;20048;-87
2023/10/03 00:16:37;;;;;;;16.50;10.52;;;;;;;15.35;100.00;99847.50;5034750;28;20044;-87
2023/10/03 00:19:03;;;;;;;18.88;11.32;;;;;;;15.44;100.00;99870.53;5052328;28;20484;-88
2023/10/03 00:21:28;;;;;;;15.90;9.70;;;;;;;15.51;100.00;99876.25;5034918;28;20492;-88
2023/10/03 00:23:54;;;;;;;16.25;10.25;;;;;;;15.37;100.00;99856.09;5034785;28;20025;-89
2023/10/03 00:26:22;;;;;;;15.15;10.20;;;;;;;15.19;100.00;99826.63;5034489;28;20033;-88
2023/10/03 00:28:49;;;;;;;15.95;10.40;;;;;;;15.04;100.00;99801.34;5034594;28;20464;-88
2023/10/03 00:31:15;;;;;;;16.67;10.48;;;;;;;15.45;100.00;99873.03;5052157;28;20495;-88
2023/10/03 00:33:41;;;;;;;16.70;10.30;;;;;;;15.29;100.00;99843.44;5033498;28;20125;-88
2023/10/03 00:36:23;;;;;;;14.98;9.95;;;;;;;15.37;100.00;99854.31;5034238;28;20379;-88
2023/10/03 00:38:50;;;;;;;14.13;8.88;;;;;;;15.37;100.00;99856.94;5034210;28;20384;-88
2023/10/03 00:41:17;;;;;;;16.90;10.55;;;;;;;15.05;100.00;99805.66;5034134;28;20025;-88
2023/10/03 00:43:52;;;;;;;20.00;10.18;;;;;;;15.36;100.00;99859.66;5034368;28;20040;-88
2023/10/03 00:46:18;;;;;;;17.05;10.40;;;;;;;15.00;100.00;99795.47;5033891;28;20033;-88
2023/10/03 00:48:47;;;;;;;15.48;10.25;;;;;;;15.23;100.00;99836.81;5034379;28;20123;-89
2023/10/03 00:51:13;;;;;;;14.77;9.60;;;;;;;15.15;100.00;99836.47;5034024;28;20021;-88
2023/10/03 00:53:38;;;;;;;15.13;10.10;;;;;;;15.05;100.00;99813.53;5052100;28;20036;-88
2023/10/03 00:56:10;;;;;;;15.88;9.98;;;;;;;14.96;100.00;99793.97;5033753;28;20480;-88
2023/10/03 00:58:36;;;;;;;16.13;10.48;;;;;;;15.13;100.00;99825.22;5034210;28;20029;-88
2023/10/03 01:01:03;;;;;;;17.17;10.48;;;;;;;14.98;100.00;99792.91;5034100;28;20033;-88
2023/10/03 01:03:30;;;;;;;16.08;9.90;;;;;;;15.16;100.00;99832.06;5034183;28;20033;-88
2023/10/03 01:06:00;;;;;;;14.45;9.32;;;;;;;15.03;100.00;99804.91;5034173;28;20119;-88
2023/10/03 01:08:29;;;;;;;17.65;11.50;;;;;;;15.02;100.00;99819.81;5051830;28;20045;-88
2023/10/03 01:11:00;;;;;;;16.02;9.15;;;;;;;15.02;100.00;99806.69;5052232;28;20387;-88
2023/10/03 01:13:26;;;;;;;17.63;9.85;;;;;;;15.09;100.00;99815.88;5033938;28;20025;-88
2023/10/03 01:15:53;;;;;;;15.50;9.75;;;;;;;15.14;100.00;99823.44;5051856;28;20413;-88
2023/10/03 01:18:20;;;;;;;14.82;10.35;;;;;;;15.07;100.00;99814.25;5051643;28;20074;-88
2023/10/03 01:20:55;;;;;;;12.80;9.25;;;;;;;15.01;100.00;99799.75;5033982;28;20025;-89
2023/10/03 01:23:26;;;;;;;14.35;9.80;;;;;;;15.01;100.00;99804.16;5033612;28;20043;-88
2023/10/03 01:25:52;;;;;;;15.40;9.40;;;;;;;14.98;100.00;99808.66;5033705;28;20556;-89
2023/10/03 01:28:17;;;;;;;13.75;8.55;;;;;;;14.88;100.00;99793.59;5033750;28;20124;-88
2023/10/03 01:30:43;;;;;;;17.60;9.35;;;;;;;14.91;100.00;99799.47;5033906;28;20017;-88
2023/10/03 01:33:09;;;;;;;15.60;9.63;;;;;;;14.93;100.00;99802.84;5033698;28;20120;-88
2023/10/03 01:35:35;;;;;;;16.67;9.73;;;;;;;14.75;100.00;99776.91;5033683;28;20021;-88
2023/10/03 01:38:00;;;;;;;15.93;9.68;;;;;;;14.64;100.00;99764.50;5033628;28;20033;-88
2023/10/03 01:40:26;;;;;;;16.25;9.48;;;;;;;14.63;100.00;99768.88;5033360;28;20465;-88
2023/10/03 01:42:52;;;;;;;16.08;9.65;;;;;;;14.77;100.00;99789.00;5051644;28;20060;-88
2023/10/03 01:45:21;;;;;;;14.77;9.35;;;;;;;14.75;100.00;99790.03;5036187;28;20021;-88
2023/10/03 01:47:49;;;;;;;13.82;9.05;;;;;;;14.72;100.00;99785.84;5037712;28;20029;-89
2023/10/03 01:50:17;;;;;;;14.77;9.05;;;;;;;14.58;100.00;99756.97;5037297;28;20025;-88
2023/10/03 01:52:43;;;;;;;15.20;9.55;;;;;;;14.70;100.00;99769.34;5037187;28;20029;-88
2023/10/03 01:55:13;;;;;;;14.05;9.40;;;;;;;14.67;100.00;99773.00;5037265;28;20537;-88
2023/10/03 01:57:40;;;;;;;15.70;8.85;;;;;;;14.61;100.00;99773.38;5055487;28;20112;-88
2023/10/03 02:00:21;;;;;;;15.40;8.77;;;;;;;14.52;100.00;99760.00;5055408;28;20036;-88
2023/10/03 02:02:50;;;;;;;13.90;8.63;;;;;;;14.37;100.00;99727.69;5037375;28;20025;-88
2023/10/03 02:05:19;;;;;;;13.88;8.52;;;;;;;14.54;100.00;99764.22;5036528;28;20120;-88
2023/10/03 02:07:45;;;;;;;12.20;8.80;;;;;;;14.29;100.00;99715.06;5055078;28;20123;-88
2023/10/03 02:10:12;;;;;;;13.10;8.63;;;;;;;14.67;100.00;99777.41;5037157;28;20029;-88
2023/10/03 02:12:48;;;;;;;13.23;8.88;;;;;;;14.57;100.00;99764.00;5037287;28;20025;-88
2023/10/03 02:15:15;;;;;;;12.35;8.38;;;;;;;14.59;100.00;99771.78;5036896;28;20079;-88
2023/10/03 02:17:40;;;;;;;13.70;8.30;;;;;;;14.53;100.00;99756.44;5036929;28;20473;-88
2023/10/03 02:20:14;;;;;;;14.55;9.23;;;;;;;14.53;100.00;99754.66;5036665;28;20029;-88
2023/10/03 02:22:39;;;;;;;13.52;8.80;;;;;;;14.52;100.00;99754.75;5037323;28;20047;-88
2023/10/03 02:25:06;;;;;;;12.52;8.48;;;;;;;14.46;100.00;99740.22;5054811;28;20516;-88
2023/10/03 02:27:32;;;;;;;14.57;9.13;;;;;;;14.51;100.00;99751.28;5036992;28;20028;-88
2023/10/03 02:29:58;;;;;;;15.45;8.80;;;;;;;14.25;100.00;99704.84;5054763;28;20025;-88
2023/10/03 02:32:25;;;;;;;12.73;8.35;;;;;;;14.48;100.00;99744.44;5036471;28;20477;-88
2023/10/03 02:34:50;;;;;;;12.00;8.05;;;;;;;14.43;100.00;99743.88;5036842;28;20029;-88
2023/10/03 02:37:16;;;;;;;15.43;8.52;;;;;;;14.42;100.00;99729.09;5036515;28;20117;-88
2023/10/03 02:39:43;;;;;;;14.57;8.43;;;;;;;14.43;100.00;99733.38;5054782;28;20436;-88
2023/10/03 02:42:09;;;;;;;14.45;9.48;;;;;;;14.47;100.00;99734.88;5054388;28;20401;-88
2023/10/03 02:44:36;;;;;;;14.23;8.40;;;;;;;14.30;100.00;99706.25;5054452;28;20032;-88
2023/10/03 02:47:02;;;;;;;16.77;10.02;;;;;;;14.08;100.00;99672.66;5036363;28;20476;-88
2023/10/03 02:49:27;;;;;;;14.05;8.98;;;;;;;14.43;100.00;99729.91;5036335;28;20037;-88
2023/10/03 02:51:53;;;;;;;15.65;8.77;;;;;;;14.41;100.00;99722.16;5054274;28;20041;-88
2023/10/03 02:54:18;;;;;;;13.73;8.20;;;;;;;14.48;100.00;99717.38;5036354;28;20040;-88
2023/10/03 02:56:43;;;;;;;13.60;8.60;;;;;;;14.45;100.00;99709.69;5035258;28;20469;-88
2023/10/03 02:59:09;;;;;;;13.25;8.05;;;;;;;14.05;100.00;99649.28;5036027;28;20025;-89
2023/10/03 03:01:35;;;;;;;16.65;9.20;;;;;;;14.36;100.00;99692.75;5036029;28;20032;-88
2023/10/03 03:04:02;;;;;;;13.93;8.02;;;;;;;14.47;100.00;99705.22;5036337;28;20068;-89
2023/10/03 03:06:28;;;;;;;16.58;9.00;;;;;;;14.54;100.00;99705.69;5035655;28;20036;-88
2023/10/03 03:08:53;;;;;;;13.18;8.38;;;;;;;14.43;100.00;99695.84;5053830;28;20045;-88
2023/10/03 03:11:18;;;;;;;13.05;8.50;;;;;;;14.29;100.00;99678.38;5053753;28;20029;-88
2023/10/03 03:13:44;;;;;;;16.50;8.82;;;;;;;14.16;100.00;99648.63;5053963;28;20031;-89
2023/10/03 03:16:11;;;;;;;13.70;9.23;;;;;;;14.42;100.00;99695.00;5035475;28;20021;-88
2023/10/03 03:18:42;;;;;;;14.65;8.75;;;;;;;14.26;100.00;99654.13;5036003;28;20041;-88
2023/10/03 03:21:15;;;;;;;13.40;8.07;;;;;;;14.37;100.00;99676.13;5035889;28;20021;-88
2023/10/03 03:23:55;;;;;;;16.05;9.30;;;;;;;14.26;100.00;99662.84;5035884;28;20496;-88
2023/10/03 03:26:21;;;;;;;18.77;9.80;;;;;;;14.29;100.00;99667.88;5035625;28;20037;-88
2023/10/03 03:28:52;;;;;;;13.90;9.23;;;;;;;14.35;100.00;99671.91;5053594;28;20025;-88
2023/10/03 03:33:49;;;;;;;14.45;9.35;;;;;;;14.36;100.00;99666.56;5053676;28;20388;-88
2023/10/03 03:36:19;;;;;;;16.98;8.38;;;;;;;14.23;100.00;99642.06;5053239;28;20083;-88
2023/10/03 03:38:49;;;;;;;17.15;9.38;;;;;;;14.39;100.00;99669.00;5053478;28;20427;-88
2023/10/03 03:41:15;;;;;;;16.02;8.55;;;;;;;14.47;100.00;99673.75;5053193;28;20029;-88
2023/10/03 03:43:42;;;;;;;16.20;9.00;;;;;;;14.22;100.00;99627.28;5035699;28;20492;-89
2023/10/03 03:46:08;;;;;;;15.43;9.25;;;;;;;14.41;100.00;99664.50;5035443;28;20419;-88
2023/10/03 03:48:34;;;;;;;13.27;8.63;;;;;;;14.29;100.00;99652.16;5035308;28;20063;-87
2023/10/03 03:51:08;;;;;;;14.00;9.10;;;;;;;14.35;100.00;99662.25;5035339;28;20060;-89
2023/10/03 03:53:34;;;;;;;14.15;9.02;;;;;;;14.17;100.00;99637.22;5052888;28;20078;-88
2023/10/03 03:56:00;;;;;;;13.57;8.45;;;;;;;14.16;100.00;99633.75;5035608;28;20029;-88
2023/10/03 03:58:26;;;;;;;13.15;8.20;;;;;;;14.13;100.00;99625.25;5053381;28;20040;-88
2023/10/03 04:00:52;;;;;;;14.82;8.45;;;;;;;14.32;100.00;99659.81;5053304;28;20025;-88
2023/10/03 04:03:18;;;;;;;12.40;8.18;;;;;;;14.24;100.00;99635.88;5034939;28;20384;-88
2023/10/03 04:05:46;;;;;;;14.20;9.68;;;;;;;14.04;100.00;99620.56;5035009;28;20036;-88
2023/10/03 04:08:11;;;;;;;12.13;8.25;;;;;;;14.11;100.00;99635.78;5052460;28;20044;-88
2023/10/03 04:10:37;;;;;;;13.70;8.52;;;;;;;14.12;100.00;99640.13;5053344;28;20028;-88
2023/10/03 04:13:16;;;;;;;15.70;9.23;;;;;;;14.12;100.00;99644.50;5035036;28;20415;-88
2023/10/03 04:15:43;;;;;;;15.30;8.38;;;;;;;14.06;100.00;99637.84;5034821;28;20028;-89
2023/10/03 04:18:09;;;;;;;14.20;8.57;;;;;;;13.95;100.00;99599.25;5035076;28;20380;-88
2023/10/03 04:20:35;;;;;;;13.93;8.80;;;;;;;14.12;100.00;99634.03;5034550;28;20025;-89
2023/10/03 04:23:03;;;;;;;16.10;10.23;;;;;;;14.06;100.00;99626.53;5034609;28;20052;-88
2023/10/03 04:25:30;;;;;;;13.93;9.40;;;;;;;13.70;100.00;99563.25;5052347;28;20024;-88
2023/10/03 04:27:56;;;;;;;12.40;8.75;;;;;;;13.99;100.00;99602.53;5034568;28;20025;-88
2023/10/03 04:30:26;;;;;;;14.23;8.98;;;;;;;14.10;100.00;99614.94;5034164;28;20035;-88
2023/10/03 04:32:53;;;;;;;17.90;9.30;;;;;;;13.98;100.00;99601.66;5034582;28;20094;-89
2023/10/03 04:35:19;;;;;;;14.88;8.55;;;;;;;13.86;100.00;99572.75;5034064;28;20048;-88
2023/10/03 04:37:51;;;;;;;13.00;9.20;;;;;;;14.04;100.00;99602.25;5052138;28;20076;-88
2023/10/03 04:40:21;;;;;;;16.33;9.27;;;;;;;14.12;100.00;99616.53;5052162;28;20028;-88
2023/10/03 04:42:51;;;;;;;14.27;9.05;;;;;;;13.99;100.00;99592.06;5034402;28;20078;-88
2023/10/03 04:45:19;;;;;;;16.60;9.00;;;;;;;14.12;100.00;99613.09;5034137;28;20031;-88
2023/10/03 04:47:46;;;;;;;16.98;9.15;;;;;;;14.06;100.00;99601.19;5034217;28;20025;-88
2023/10/03 04:50:16;;;;;;;15.13;8.85;;;;;;;13.83;100.00;99562.50;5034371;28;20032;-88
2023/10/03 04:52:41;;;;;;;14.85;9.38;;;;;;;13.71;100.00;99543.16;5034514;28;20028;-88
2023/10/03 04:55:07;;;;;;;19.10;9.10;;;;;;;13.88;100.00;99565.69;5034248;28;20087;-88
2023/10/03 04:57:33;;;;;;;15.68;9.65;;;;;;;14.08;100.00;99594.09;5033849;28;20028;-88
2023/10/03 04:59:59;;;;;;;15.98;10.40;;;;;;;14.09;100.00;99594.94;5034053;28;20033;-88
2023/10/03 05:02:30;;;;;;;15.48;9.32;;;;;;;13.87;100.00;99556.97;5033659;28;20032;-88
2023/10/03 05:04:56;;;;;;;16.77;10.02;;;;;;;13.71;100.00;99525.66;5034154;28;20021;-88
2023/10/03 05:07:25;;;;;;;15.80;9.40;;;;;;;14.14;100.00;99598.94;5033620;28;20067;-87
2023/10/03 05:09:51;;;;;;;15.98;9.82;;;;;;;14.08;100.00;99567.91;5051988;28;20025;-87
2023/10/03 05:12:17;;;;;;;14.23;8.68;;;;;;;13.90;100.00;99540.22;5051954;28;20036;-88
2023/10/03 05:14:45;;;;;;;13.05;8.65;;;;;;;13.98;100.00;99545.81;5033933;28;20489;-87
2023/10/03 05:17:10;;;;;;;18.67;9.23;;;;;;;14.11;100.00;99553.75;5051579;28;20037;-88
2023/10/03 05:19:36;;;;;;;17.52;9.40;;;;;;;14.29;100.00;99578.81;5033065;28;20044;-87
2023/10/03 05:22:03;;;;;;;17.35;10.32;;;;;;;14.31;100.00;99578.72;5051775;28;20033;-87
2023/10/03 05:24:31;;;;;;;13.93;8.82;;;;;;;14.42;100.00;99568.41;5051542;28;20033;-87
2023/10/03 05:26:56;;;;;;;16.52;9.45;;;;;;;14.42;100.00;99560.53;5051755;28;20029;-87
2023/10/03 05:29:22;;;;;;;15.18;8.50;;;;;;;14.46;100.00;99556.78;5051331;28;20021;-88
2023/10/03 05:31:48;;;;;;;16.70;9.82;;;;;;;14.47;100.00;99548.81;5033605;28;20120;-87
2023/10/03 05:34:15;;;;;;;18.83;10.93;;;;;;;14.45;100.00;99537.59;5033977;28;20562;-87
2023/10/03 05:36:40;;;;;;;20.35;9.98;;;;;;;14.75;100.00;99568.03;5051393;28;20025;-88
2023/10/03 05:39:11;;;;;;;17.05;9.35;;;;;;;14.81;100.00;99558.94;5033650;28;20028;-87
2023/10/03 05:41:40;;;;;;;16.23;10.33;;;;;;;14.98;100.00;99567.34;5033462;28;20029;-88
2023/10/03 05:44:11;;;;;;;17.85;9.70;;;;;;;14.89;100.00;99519.94;5033610;28;20123;-87
2023/10/03 05:46:40;;;;;;;16.77;9.40;;;;;;;15.26;100.00;99572.56;5033637;28;20072;-87
2023/10/03 05:49:05;;;;;;;16.17;9.38;;;;;;;15.40;100.00;99567.22;5033672;28;20025;-87
2023/10/03 05:51:30;;;;;;;15.27;9.05;;;;;;;15.44;100.00;99553.78;5033454;28;20086;-87
2023/10/03 05:53:56;;;;;;;13.73;9.13;;;;;;;15.41;100.00;99519.03;5033499;28;20067;-87
2023/10/03 05:56:21;;;;;;;17.52;10.18;;;;;;;15.56;100.00;99523.22;5033179;28;20070;-88
2023/10/03 05:58:47;;;;;;;14.18;8.95;;;;;;;15.88;100.00;99547.25;5051288;28;20036;-87
2023/10/03 06:01:13;;;;;;;13.57;8.93;;;;;;;15.96;100.00;99523.09;5051495;28;20036;-87
2023/10/03 06:03:41;;;;;;;13.30;8.93;;;;;;;16.57;100.00;99565.16;5032859;28;20059;-87
2023/10/03 06:06:06;;;;;;;13.60;8.35;;;;;;;16.98;100.00;99556.03;5058629;28;20029;-86
2023/10/03 06:08:32;;;;;;;16.75;8.70;;;;;;;16.91;100.00;99522.31;5041314;28;20403;-87
2023/10/03 06:11:03;;;;;;;12.88;8.52;;;;;;;17.12;100.00;99558.50;5033643;28;20029;-87
2023/10/03 06:13:29;;;;;;;15.60;9.05;;;;;;;17.21;100.00;99555.16;5033430;28;20028;-87
2023/10/03 06:15:58;;;;;;;14.32;9.18;;;;;;;16.90;100.00;99494.31;5051196;28;20025;-87
2023/10/03 06:18:24;;;;;;;13.80;9.07;;;;;;;17.44;100.00;99532.34;5033283;28;20029;-88
2023/10/03 06:20:49;;;;;;;14.50;10.02;;;;;;;17.61;100.00;99536.28;5033345;28;20031;-87
2023/10/03 06:23:15;;;;;;;14.40;8.60;;;;;;;17.92;100.00;99533.00;5033261;28;20028;-87
2023/10/03 06:25:40;;;;;;;12.75;8.57;;;;;;;18.14;98.20;99532.13;5032738;28;20506;-87
2023/10/03 06:28:05;;;;;;;12.93;8.32;;;;;;;18.10;98.17;99514.03;5051524;28;20064;-87
2023/10/03 06:30:31;;;;;;;13.27;8.05;;;;;;;18.29;97.33;99540.63;5051291;28;20025;-87
2023/10/03 06:32:57;;;;;;;16.15;9.68;;;;;;;18.50;97.03;99524.84;5036739;28;20025;-88
2023/10/03 06:35:23;;;;;;;17.58;9.52;;;;;;;18.81;95.98;99539.03;5036499;28;20021;-88
2023/10/03 06:37:48;;;;;;;14.93;9.10;;;;;;;18.86;94.85;99507.81;5054511;28;20040;-88
2023/10/03 06:40:16;;;;;;;16.52;9.25;;;;;;;19.35;93.71;99532.75;5036488;28;20078;-87
2023/10/03 06:42:41;;;;;;;15.23;9.52;;;;;;;19.70;92.30;99520.97;5054408;28;20192;-87
2023/10/03 06:45:11;;;;;;;12.70;8.75;;;;;;;19.90;90.58;99513.97;5054554;28;20100;-87
2023/10/03 06:47:38;;;;;;;16.20;8.90;;;;;;;20.11;89.78;99506.78;5036285;28;20428;-87
2023/10/03 06:50:05;;;;;;;18.60;9.50;;;;;;;20.35;88.71;99514.38;5054409;28;20021;-88
2023/10/03 06:52:32;;;;;;;15.73;9.75;;;;;;;20.59;87.48;99527.22;5011822;28;20046;-87
2023/10/03 06:54:58;;;;;;;18.02;8.85;;;;;;;20.23;86.51;99449.34;4995484;28;20049;-87
2023/10/03 06:57:23;;;;;;;15.00;8.85;;;;;;;20.62;87.08;99499.63;5011764;28;20042;-87
2023/10/03 06:59:48;;;;;;;14.00;8.73;;;;;;;20.51;86.14;99497.13;5012018;28;20033;-87
2023/10/03 07:02:14;;;;;;;13.88;8.57;;;;;;;20.78;86.01;99514.97;4995298;28;20034;-87
2023/10/03 07:04:40;;;;;;;11.93;8.20;;;;;;;20.80;85.31;99475.94;4995075;28;20109;-87
2023/10/03 07:07:05;;;;;;;15.93;9.88;;;;;;;21.03;85.71;99474.66;5011884;28;20046;-87
2023/10/03 07:09:31;;;;;;;13.63;8.80;;;;;;;21.16;83.21;99496.38;5011416;28;20057;-87
2023/10/03 07:11:57;;;;;;;13.23;8.85;;;;;;;21.11;84.67;99487.16;5011949;28;20051;-87
2023/10/03 07:14:22;;;;;;;12.75;8.85;;;;;;;21.32;84.94;99487.88;4992084;28;20039;-88
2023/10/03 07:16:48;;;;;;;14.65;8.75;;;;;;;21.46;84.39;99491.88;4992026;28;20053;-87
2023/10/03 07:19:16;;;;;;;17.13;9.43;;;;;;;21.52;84.06;99487.78;4975701;28;20129;-87
2023/10/03 07:21:42;;;;;;;13.10;8.88;;;;;;;21.76;83.42;99498.72;4975546;28;20030;-87
2023/10/03 07:24:08;;;;;;;14.93;8.80;;;;;;;21.92;83.06;99498.91;4990240;28;20041;-87
2023/10/03 07:26:33;;;;;;;13.00;8.75;;;;;;;22.02;83.41;99474.16;5011465;28;20065;-87
2023/10/03 07:29:02;;;;;;;14.43;9.27;;;;;;;22.34;83.05;99482.50;5011758;28;20481;-87
2023/10/03 07:31:32;;;;;;;17.40;9.52;;;;;;;22.18;81.89;99447.84;4994917;28;20484;-86
2023/10/03 07:33:57;;;;;;;15.20;9.65;;;;;;;22.35;81.77;99454.97;5011552;28;20038;-86
2023/10/03 07:36:23;;;;;;;14.32;8.07;;;;;;;22.74;81.32;99485.66;5011420;28;20052;-85
2023/10/03 07:38:49;;;;;;;13.30;9.15;;;;;;;22.34;81.38;99426.78;5011043;28;20041;-86
2023/10/03 07:41:17;;;;;;;13.40;8.52;;;;;;;22.75;80.93;99487.31;5011361;28;20076;-86
2023/10/03 07:43:47;;;;;;;12.32;8.88;;;;;;;22.53;81.81;99427.59;5010361;28;20030;-86
2023/10/03 07:46:19;;;;;;;14.77;8.88;;;;;;;22.85;81.02;99462.34;5026981;28;20033;-86
2023/10/03 07:48:45;;;;;;;13.88;8.93;;;;;;;22.83;80.88;99444.91;5010809;28;20052;-86
2023/10/03 07:51:15;;;;;;;13.63;8.50;;;;;;;23.11;80.62;99488.97;4994407;28;20425;-87
2023/10/03 07:53:41;;;;;;;10.93;8.13;;;;;;;22.94;81.49;99436.72;5010543;28;20528;-87
2023/10/03 07:56:25;;;;;;;13.57;8.43;;;;;;;23.33;81.09;99481.47;5010993;28;20045;-87
2023/10/03 07:58:53;;;;;;;15.80;9.40;;;;;;;23.32;81.43;99458.53;5010829;28;20104;-87
2023/10/03 08:01:20;;;;;;;15.75;10.00;;;;;;;23.49;81.36;99476.22;4994401;28;20200;-87
2023/10/03 08:03:45;;;;;;;16.10;8.85;;;;;;;23.42;80.94;99465.38;5010657;28;20581;-87
2023/10/03 08:06:14;;;;;;;13.40;9.00;;;;;;;23.51;80.35;99476.94;4994316;28;20120;-87
2023/10/03 08:08:40;;;;;;;13.48;9.27;;;;;;;23.49;80.57;99481.56;4993899;28;20485;-87
2023/10/03 08:11:06;;;;;;;13.63;9.20;;;;;;;23.36;81.87;99443.94;5010750;28;20072;-87
2023/10/03 08:13:38;;;;;;;15.60;9.05;;;;;;;23.34;81.16;99432.63;4994037;28;20448;-86
2023/10/03 08:16:04;;;;;;;13.85;9.38;;;;;;;23.45;81.13;99455.44;5011218;28;20033;-87
2023/10/03 08:18:35;;;;;;;12.90;8.65;;;;;;;23.57;80.99;99465.66;5014962;28;20057;-88
2023/10/03 08:21:04;;;;;;;16.40;9.43;;;;;;;23.63;81.83;99465.00;5032874;28;20048;-87
2023/10/03 08:23:37;;;;;;;12.95;9.07;;;;;;;23.41;81.43;99428.34;5031317;28;20027;-88
2023/10/03 08:26:03;;;;;;;15.65;9.63;;;;;;;23.63;81.78;99453.53;5031312;28;20072;-88
2023/10/03 08:28:30;;;;;;;13.93;9.35;;;;;;;23.42;81.57;99417.53;5031122;28;20025;-87
2023/10/03 08:30:56;;;;;;;13.25;9.00;;;;;;;23.41;82.48;99421.19;5032390;28;20025;-88
2023/10/03 08:33:25;;;;;;;14.52;8.80;;;;;;;23.53;81.97;99447.50;5037557;28;20033;-89
2023/10/03 08:35:52;;;;;;;16.83;10.43;;;;;;;23.36;82.49;99428.00;5014607;28;20025;-87
2023/10/03 08:38:19;;;;;;;12.90;8.85;;;;;;;23.36;83.41;99439.47;5032404;28;20026;-86
2023/10/03 08:40:50;;;;;;;19.38;9.60;;;;;;;23.29;83.70;99421.66;5014476;28;20025;-87
2023/10/03 08:43:25;;;;;;;13.02;9.32;;;;;;;23.44;84.22;99444.00;5032080;28;20029;-86
2023/10/03 08:45:56;;;;;;;13.85;8.90;;;;;;;23.36;83.48;99434.16;5032322;28;20068;-87
2023/10/03 08:48:27;;;;;;;13.77;8.63;;;;;;;23.41;84.40;99434.50;5032390;28;20381;-87
2023/10/03 08:50:57;;;;;;;17.08;9.07;;;;;;;23.08;84.89;99382.19;5032178;28;20025;-86
2023/10/03 08:53:27;;;;;;;13.15;8.88;;;;;;;23.35;84.79;99418.38;5031769;28;20116;-87
2023/10/03 08:56:03;;;;;;;14.48;9.32;;;;;;;23.21;85.16;99387.88;5031441;28;20032;-87
2023/10/03 08:58:29;;;;;;;12.48;8.52;;;;;;;23.56;85.41;99429.44;5032306;28;20029;-88
2023/10/03 09:01:02;;;;;;;15.70;9.23;;;;;;;23.57;85.42;99424.94;5032204;28;20029;-87
2023/10/03 09:03:47;;;;;;;14.55;8.55;;;;;;;23.50;86.31;99405.28;5032083;28;20025;-87
2023/10/03 09:06:19;;;;;;;12.55;8.55;;;;;;;23.56;85.48;99404.66;5031901;28;20025;-87
2023/10/03 09:09:07;;;;;;;13.50;8.32;;;;;;;23.58;84.28;99398.19;5030350;28;20041;-87
2023/10/03 09:11:39;;;;;;;13.85;8.90;;;;;;;23.58;84.54;99386.72;5031877;28;20120;-87
2023/10/03 09:14:05;;;;;;;12.70;7.72;;;;;;;23.43;83.01;99359.94;5031961;28;20088;-87
2023/10/03 09:16:39;;;;;;;13.90;8.52;;;;;;;23.57;83.93;99379.75;5031677;28;20025;-87
2023/10/03 09:19:23;;;;;;;14.25;7.78;;;;;;;23.69;82.17;99393.59;5030719;28;20033;-87
2023/10/03 09:21:54;;;;;;;13.20;8.77;;;;;;;23.67;81.84;99384.94;5015460;28;20052;-87
2023/10/03 09:24:21;;;;;;;;;;;;;;;23.64;82.23;99392.22;5032364;28;20095;-87
2023/10/03 09:26:51;;;;;;;12.07;7.57;;;;;;;23.57;82.14;99372.59;5030301;28;20384;-87
2023/10/03 09:29:29;;;;;;;12.65;8.18;;;;;;;23.70;81.46;99390.78;5013897;28;20485;-86
2023/10/03 09:32:12;;;;;;;13.32;7.68;;;;;;;23.50;79.73;99352.13;5030468;28;20025;-86
2023/10/03 09:34:40;;;;;;;11.27;6.97;;;;;;;23.72;79.83;99364.00;5031627;28;20022;-87
2023/10/03 09:37:06;;;;;;;12.82;7.00;;;;;;;23.70;79.48;99369.50;5030336;28;20473;-87
2023/10/03 09:39:39;;;;;;;10.25;6.40;;;;;;;23.78;78.82;99366.88;5030222;28;20083;-87
2023/10/03 09:42:13;;;;;;;12.95;7.72;;;;;;;23.75;79.21;99369.00;5030434;28;20025;-87
2023/10/03 09:44:40;;;;;;;11.35;6.47;;;;;;;23.59;79.49;99336.03;5013754;28;20032;-87
2023/10/03 09:47:06;;;;;;;11.63;6.88;;;;;;;23.25;79.21;99276.81;5030329;28;20108;-87
2023/10/03 09:49:38;;;;;;;10.00;7.25;;;;;;;23.83;80.09;99355.72;5030325;28;20029;-87
2023/10/03 09:52:22;;;;;;;12.45;7.97;;;;;;;23.81;79.60;99347.94;5030210;28;20389;-87
2023/10/03 09:54:53;;;;;;;11.48;7.45;;;;;;;23.73;79.43;99331.13;5013534;28;20117;-87
2023/10/03 09:57:21;;;;;;;13.00;7.65;;;;;;;23.62;78.85;99295.84;5031808;28;20041;-87
2023/10/03 09:59:48;;;;;;;9.43;6.93;;;;;;;23.86;78.73;99339.47;5029939;28;20524;-88
2023/10/03 10:02:15;;;;;;;9.57;7.05;;;;;;;23.83;78.70;99347.75;5030296;28;20445;-88
2023/10/03 10:04:44;;;;;;;9.57;6.65;;;;;;;23.52;79.26;99304.97;5013844;28;20055;-87
2023/10/03 10:07:29;;;;;;;9.00;6.60;;;;;;;23.68;80.10;99352.03;5017687;28;20029;-87
2023/10/03 10:10:14;;;;;;;10.43;6.68;;;;;;;23.71;78.86;99363.19;5017365;28;20049;-87
2023/10/03 10:13:12;;;;;;;10.38;6.85;;;;;;;23.75;77.38;99353.06;5033637;28;20045;-87
2023/10/03 10:16:00;;;;;;;8.10;5.53;;;;;;;23.75;76.03;99343.25;5034652;28;20022;-87
2023/10/03 10:18:43;;;;;;;10.02;6.70;;;;;;;23.88;75.82;99348.09;5035441;28;20063;-87
2023/10/03 10:21:26;;;;;;;11.15;6.63;;;;;;;23.65;74.90;99311.50;5032363;28;20447;-87
2023/10/03 10:24:15;;;;;;;12.60;7.05;;;;;;;23.94;74.15;99344.78;5032149;28;20476;-87
2023/10/03 10:26:41;;;;;;;10.90;7.13;;;;;;;23.86;73.67;99318.19;5031899;28;20041;-87
2023/10/03 10:29:08;;;;;;;11.95;7.43;;;;;;;23.77;74.11;99288.09;5032700;28;20037;-87
2023/10/03 10:31:39;;;;;;;11.23;6.53;;;;;;;24.01;73.42;99326.31;5032307;28;20060;-87
2023/10/03 10:34:20;;;;;;;10.77;6.20;;;;;;;24.11;73.27;99335.00;5032424;28;20029;-87
2023/10/03 10:37:11;;;;;;;9.13;5.95;;;;;;;23.98;72.39;99297.41;5031929;28;20184;-87
2023/10/03 10:40:17;;;;;;;10.10;6.68;;;;;;;24.07;72.81;99294.59;5032029;28;20032;-87
2023/10/03 10:43:08;;;;;;;7.93;5.88;;;;;;;24.13;72.66;99277.09;5032003;28;20034;-87
2023/10/03 10:45:39;;;;;;;9.75;6.50;;;;;;;24.25;73.30;99281.09;5032136;28;20052;-87
2023/10/03 10:48:06;;;;;;;9.10;6.32;;;;;;;24.42;73.58;99289.91;5032044;28;20034;-87
2023/10/03 10:51:02;;;;;;;8.88;6.50;;;;;;;24.57;73.81;99296.22;5031954;28;20493;-87
2023/10/03 10:53:38;;;;;;;11.95;6.70;;;;;;;24.66;73.99;99289.03;5034508;28;20021;-87
2023/10/03 10:56:07;;;;;;;9.70;6.68;;;;;;;24.76;72.85;99289.66;5034181;28;20029;-87
2023/10/03 10:58:44;;;;;;;7.72;6.03;;;;;;;24.80;72.67;99255.53;5016591;28;20068;-87
2023/10/03 11:01:12;;;;;;;14.18;7.43;;;;;;;24.80;72.89;99251.03;5034426;28;20108;-87
2023/10/03 11:03:37;;;;;;;9.10;5.53;;;;;;;24.97;73.07;99246.47;5032968;28;20036;-87
2023/10/03 11:06:12;;;;;;;9.60;6.45;;;;;;;25.21;71.76;99279.38;5033841;28;20045;-87
2023/10/03 11:08:50;;;;;;;9.20;6.30;;;;;;;25.08;71.36;99239.94;5033804;28;20076;-87
2023/10/03 11:11:17;;;;;;;10.07;6.93;;;;;;;25.32;70.73;99276.28;5033978;28;20033;-87
2023/10/03 11:13:49;;;;;;;9.55;6.65;;;;;;;25.31;71.02;99270.13;5033960;28;20384;-87
2023/10/03 11:16:23;;;;;;;9.15;5.60;;;;;;;25.32;70.70;99265.63;5033768;28;20220;-87
2023/10/03 11:18:49;;;;;;;11.00;6.35;;;;;;;25.18;70.67;99243.22;5033343;28;20376;-87
2023/10/03 11:21:16;;;;;;;9.63;6.45;;;;;;;25.18;70.51;99224.56;5033958;28;20033;-87
2023/10/03 11:24:10;;;;;;;7.28;5.25;;;;;;;25.36;69.42;99253.59;5015894;28;20025;-87
2023/10/03 11:26:45;;;;;;;7.45;5.60;;;;;;;25.32;68.81;99244.31;5033857;28;20038;-87
2023/10/03 11:29:11;;;;;;;10.50;5.60;;;;;;;24.98;68.58;99199.34;5033728;28;20044;-87
2023/10/03 11:31:41;;;;;;;8.68;5.70;;;;;;;25.10;68.82;99220.09;5033533;28;20516;-87
2023/10/03 11:34:07;;;;;;;8.68;6.03;;;;;;;25.14;67.96;99221.41;5015863;28;20544;-87